Time;durP1;ratioP1;P1;durP2;ratioP2;P2;SDS_P1;SDS_P2;PMS_P1;PMS_P2;Temp;Humidity;BMP_temperature;BMP_pressure;BME280_temperature;BME280_humidity;BME280_pressure;Samples;Min_cycle;Max_cycle;Signal;HPM_P1;HPM_P2
2022/03/25 00:00:10;;;;;;;;;;;;;;;6.33;37.59;99189.39;1774300;79;20740;-84
2022/03/25 00:02:38;;;;;;;;;;;;;;;6.29;37.69;99195.19;1724787;81;20180;-85
2022/03/25 00:05:04;;;;;;;;;;;;;;;6.23;37.75;99190.23;1724323;82;21088;-86
2022/03/25 00:07:32;;;;;;;;;;;;;;;6.15;37.83;99189.70;1718068;82;24541;-85
2022/03/25 00:09:59;;;;;;;;;;;;;;;6.11;37.92;99189.41;1706087;82;20263;-85
2022/03/25 00:12:26;;;;;;;;;;;;;;;6.10;38.02;99187.75;1704229;83;24758;-85
2022/03/25 00:14:54;;;;;;;;;;;;;;;6.14;38.12;99188.01;1709584;83;22253;-86
2022/03/25 00:17:20;;;;;;;;;;;;;;;6.18;38.23;99186.97;1756903;80;26011;-86
2022/03/25 00:19:46;;;;;;;;;;;;;;;6.20;38.34;99183.87;1778681;80;20256;-86
2022/03/25 00:22:11;;;;;;;;;;;;;;;6.23;38.44;99182.88;1774914;80;20248;-85
2022/03/25 00:24:37;;;;;;;;;;;;;;;6.23;38.52;99188.08;1774571;80;24788;-85
2022/03/25 00:27:04;;;;;;;;;;;;;;;6.22;38.63;99174.69;1777616;80;22013;-85
2022/03/25 00:29:30;;;;;;;;;;;;;;;6.21;38.69;99180.37;1776404;80;26011;-85
2022/03/25 00:31:56;;;;;;;;;;;;;;;6.21;38.75;99176.92;1777660;80;24728;-85
2022/03/25 00:34:21;;;;;;;;;;;;;;;6.17;38.83;99176.17;1778215;80;20309;-85
2022/03/25 00:36:48;;;;;;;;;;;;;;;6.19;38.96;99173.08;1788187;80;20692;-85
2022/03/25 00:39:14;;;;;;;;;;;;;;;6.20;39.02;99170.02;1775433;80;22022;-85
2022/03/25 00:41:40;;;;;;;;;;;;;;;6.11;39.10;99173.00;1761995;79;25935;-85
2022/03/25 00:44:10;;;;;;;;;;;;;;;6.02;39.17;99172.90;1774728;79;20228;-85
2022/03/25 00:46:39;;;;;;;;;;;;;;;5.91;39.24;99175.52;1779839;80;20321;-84
2022/03/25 00:49:05;;;;;;;;;;;;;;;5.77;39.30;99174.30;1777648;80;24361;-84
2022/03/25 00:51:31;;;;;;;;;;;;;;;5.63;39.39;99166.61;1781021;80;20321;-85
2022/03/25 00:53:57;;;;;;;;;;;;;;;5.58;39.48;99165.95;1777146;80;26037;-85
2022/03/25 00:56:24;;;;;;;;;;;;;;;5.53;39.62;99166.58;1775813;80;24418;-85
2022/03/25 00:58:51;;;;;;;;;;;;;;;5.47;39.75;99164.61;1785540;80;20163;-85
2022/03/25 01:01:20;;;;;;;;;;;;;;;5.48;39.89;99162.86;1779238;80;24805;-85
2022/03/25 01:03:46;;;;;;;;;;;;;;;5.48;40.03;99157.67;1775548;80;22000;-86
2022/03/25 01:06:12;;;;;;;;;;;;;;;5.49;40.16;99156.77;1766348;80;25980;-86
2022/03/25 01:08:46;;;;;;;;;;;;;;;5.45;40.28;99158.61;1773219;80;24615;-86
2022/03/25 01:11:12;;;;;;;;;;;;;;;5.41;40.39;99155.75;1759402;80;20269;-85
2022/03/25 01:13:38;;;;;;;;;;;;;;;5.41;40.52;99156.20;1766447;80;24750;-85
2022/03/25 01:16:05;;;;;;;;;;;;;;;5.42;40.63;99154.00;1770549;80;22040;-85
2022/03/25 01:18:31;;;;;;;;;;;;;;;5.42;40.73;99152.25;1767978;80;26012;-85
2022/03/25 01:20:58;;;;;;;;;;;;;;;5.38;40.84;99149.39;1761820;80;24578;-85
2022/03/25 01:23:24;;;;;;;;;;;;;;;5.38;40.93;99152.43;1763710;80;20484;-84
2022/03/25 01:25:50;;;;;;;;;;;;;;;5.34;41.03;99151.72;1768551;80;24848;-85
2022/03/25 01:28:16;;;;;;;;;;;;;;;5.27;41.13;99150.23;1765470;80;20280;-85
2022/03/25 01:30:47;;;;;;;;;;;;;;;5.23;41.23;99149.12;1768095;80;26012;-85
2022/03/25 01:33:10;;;;;;;;;;;;;;;5.16;41.31;99151.53;1763878;79;25121;-83
2022/03/25 01:35:37;;;;;;;;;;;;;;;5.13;41.44;99147.28;1768148;80;20587;-84
2022/03/25 01:38:04;;;;;;;;;;;;;;;5.11;41.54;99147.81;1768460;80;24781;-85
2022/03/25 01:40:34;;;;;;;;;;;;;;;5.03;41.64;99155.01;1770534;80;22675;-85
2022/03/25 01:43:01;;;;;;;;;;;;;;;4.91;41.73;99154.17;1763075;80;26072;-85
2022/03/25 01:45:34;;;;;;;;;;;;;;;4.79;41.81;99159.78;1769791;80;24490;-84
2022/03/25 01:48:03;;;;;;;;;;;;;;;4.75;41.93;99156.88;1764116;80;20280;-85
2022/03/25 01:50:29;;;;;;;;;;;;;;;4.74;42.12;99161.25;1692029;84;24734;-85
2022/03/25 01:52:55;;;;;;;;;;;;;;;4.78;42.23;99168.45;1721618;82;20341;-85
2022/03/25 01:55:24;;;;;;;;;;;;;;;4.75;42.35;99172.44;1760376;81;26041;-85
2022/03/25 01:57:50;;;;;;;;;;;;;;;4.68;42.46;99170.98;1764611;81;24525;-85
2022/03/25 02:00:17;;;;;;;;;;;;;;;4.73;42.58;99167.77;1767483;81;20244;-84
2022/03/25 02:02:43;;;;;;;;;;;;;;;4.76;42.73;99152.94;1768154;81;25010;-84
2022/03/25 02:05:10;;;;;;;;;;;;;;;4.80;42.82;99162.78;1770806;81;22144;-85
2022/03/25 02:07:37;;;;;;;;;;;;;;;4.86;42.90;99162.54;1765367;81;26032;-85
2022/03/25 02:10:05;;;;;;;;;;;;;;;4.88;43.00;99160.75;1775220;79;25300;-85
2022/03/25 02:12:32;;;;;;;;;;;;;;;4.84;43.07;99163.06;1773337;79;20458;-85
2022/03/25 02:14:58;;;;;;;;;;;;;;;4.80;43.17;99161.00;1780389;79;24849;-84
2022/03/25 02:17:24;;;;;;;;;;;;;;;4.77;43.27;99164.17;1772553;79;22032;-84
2022/03/25 02:19:51;;;;;;;;;;;;;;;4.77;43.35;99162.87;1776504;79;21002;-84
2022/03/25 02:22:17;;;;;;;;;;;;;;;4.76;43.45;99163.77;1772010;79;24420;-85
2022/03/25 02:24:44;;;;;;;;;;;;;;;4.74;43.55;99167.73;1771989;79;20234;-85
2022/03/25 02:27:12;;;;;;;;;;;;;;;4.67;43.62;99159.76;1779649;79;24780;-85
2022/03/25 02:29:39;;;;;;;;;;;;;;;4.72;43.74;99160.89;1779716;79;22672;-85
2022/03/25 02:32:05;;;;;;;;;;;;;;;4.73;43.81;99162.59;1775072;79;26114;-85
2022/03/25 02:34:31;;;;;;;;;;;;;;;4.67;43.86;99167.53;1775845;79;24439;-85
2022/03/25 02:36:57;;;;;;;;;;;;;;;4.60;43.93;99168.63;1772964;79;20297;-85
2022/03/25 02:39:23;;;;;;;;;;;;;;;4.58;44.02;99164.79;1772894;79;20293;-85
2022/03/25 02:41:51;;;;;;;;;;;;;;;4.54;44.11;99163.20;1768306;79;21666;-85
2022/03/25 02:44:17;;;;;;;;;;;;;;;4.52;44.15;99170.20;1777318;79;26057;-85
2022/03/25 02:46:43;;;;;;;;;;;;;;;4.51;44.23;99170.25;1775656;79;24472;-85
2022/03/25 02:49:09;;;;;;;;;;;;;;;4.46;44.29;99167.81;1781560;79;20820;-85
2022/03/25 02:51:35;;;;;;;;;;;;;;;4.42;44.37;99170.09;1776393;79;24931;-85
2022/03/25 02:54:01;;;;;;;;;;;;;;;4.36;44.44;99167.73;1783896;79;20311;-85
2022/03/25 02:56:27;;;;;;;;;;;;;;;4.33;44.50;99172.14;1773466;79;21031;-85
2022/03/25 02:58:53;;;;;;;;;;;;;;;4.29;44.58;99166.23;1776298;79;20279;-84
2022/03/25 03:01:19;;;;;;;;;;;;;;;4.33;44.67;99169.11;1772382;79;20213;-84
2022/03/25 03:03:45;;;;;;;;;;;;;;;4.34;44.75;99170.81;1771386;79;24751;-85
2022/03/25 03:06:11;;;;;;;;;;;;;;;4.30;44.83;99177.00;1784090;79;20730;-84
2022/03/25 03:08:37;;;;;;;;;;;;;;;4.29;44.90;99175.74;1772133;79;26069;-84
2022/03/25 03:11:04;;;;;;;;;;;;;;;4.26;44.97;99179.70;1782147;79;24539;-84
2022/03/25 03:13:30;;;;;;;;;;;;;;;4.23;45.00;99175.94;1769523;79;20231;-84
2022/03/25 03:15:56;;;;;;;;;;;;;;;4.20;45.09;99176.87;1772799;79;20287;-84
2022/03/25 03:18:22;;;;;;;;;;;;;;;4.17;45.16;99175.24;1781689;79;22048;-84
2022/03/25 03:20:48;;;;;;;;;;;;;;;4.15;45.23;99182.65;1770465;79;20802;-84
2022/03/25 03:23:14;;;;;;;;;;;;;;;4.11;45.32;99180.62;1771442;79;24476;-84
2022/03/25 03:25:40;;;;;;;;;;;;;;;4.09;45.39;99177.69;1763819;79;20136;-84
2022/03/25 03:28:07;;;;;;;;;;;;;;;4.09;45.48;99177.22;1780453;79;20288;-84
2022/03/25 03:30:39;;;;;;;;;;;;;;;4.09;45.55;99175.10;1782346;79;22712;-84
2022/03/25 03:33:08;;;;;;;;;;;;;;;4.01;45.61;99162.83;1781748;79;26895;-85
2022/03/25 03:35:34;;;;;;;;;;;;;;;4.08;45.69;99178.14;1776033;79;24416;-84
2022/03/25 03:38:00;;;;;;;;;;;;;;;4.07;45.79;99177.73;1780460;79;20488;-84
2022/03/25 03:40:26;;;;;;;;;;;;;;;4.09;45.84;99180.28;1775677;79;24799;-86
2022/03/25 03:42:52;;;;;;;;;;;;;;;4.08;45.93;99179.88;1777082;79;22011;-84
2022/03/25 03:45:19;;;;;;;;;;;;;;;4.06;46.01;99180.36;1777793;79;21122;-85
2022/03/25 03:47:45;;;;;;;;;;;;;;;4.03;46.07;99178.73;1774704;79;24392;-86
2022/03/25 03:50:13;;;;;;;;;;;;;;;4.03;46.17;99183.91;1775296;79;20249;-86
2022/03/25 03:52:41;;;;;;;;;;;;;;;4.03;46.23;99188.24;1780781;79;24699;-87
2022/03/25 03:55:08;;;;;;;;;;;;;;;4.00;46.29;99189.17;1770711;79;21941;-84
2022/03/25 03:57:35;;;;;;;;;;;;;;;3.99;46.35;99191.35;1770510;79;25977;-85
2022/03/25 04:00:03;;;;;;;;;;;;;;;3.96;46.42;99187.58;1776129;79;24495;-85
2022/03/25 04:02:31;;;;;;;;;;;;;;;3.91;46.48;99181.70;1775880;79;20219;-85
2022/03/25 04:04:57;;;;;;;;;;;;;;;3.89;46.54;99187.80;1772755;79;24720;-85
2022/03/25 04:07:28;;;;;;;;;;;;;;;3.79;46.60;99185.51;1777230;79;22047;-85
2022/03/25 04:09:54;;;;;;;;;;;;;;;3.71;46.67;99181.44;1785129;79;25996;-86
2022/03/25 04:12:21;;;;;;;;;;;;;;;3.60;46.74;99179.66;1776936;80;24524;-86
2022/03/25 04:14:48;;;;;;;;;;;;;;;3.49;46.83;99176.05;1764346;80;20471;-85
2022/03/25 04:17:14;;;;;;;;;;;;;;;3.39;46.93;99183.69;1772713;80;24735;-85
2022/03/25 04:19:40;;;;;;;;;;;;;;;3.32;47.04;99182.20;1779833;80;21961;-85
2022/03/25 04:22:06;;;;;;;;;;;;;;;3.29;47.16;99182.27;1778386;80;25977;-85
2022/03/25 04:24:33;;;;;;;;;;;;;;;3.25;47.30;99182.81;1780309;80;24563;-86
2022/03/25 04:26:58;;;;;;;;;;;;;;;3.19;47.43;99184.72;1766276;80;20280;-86
2022/03/25 04:29:24;;;;;;;;;;;;;;;3.15;47.53;99181.82;1770646;80;20828;-85
2022/03/25 04:31:50;;;;;;;;;;;;;;;3.11;47.66;99186.20;1771384;80;20208;-86
2022/03/25 04:34:16;;;;;;;;;;;;;;;3.12;47.80;99181.89;1779366;80;20965;-86
2022/03/25 04:36:42;;;;;;;;;;;;;;;3.18;47.91;99183.02;1765492;80;20237;-86
2022/03/25 04:39:08;;;;;;;;;;;;;;;3.25;48.02;99187.13;1779436;80;20219;-86
2022/03/25 04:41:34;;;;;;;;;;;;;;;3.27;48.13;99183.59;1786101;80;20792;-85
2022/03/25 04:44:00;;;;;;;;;;;;;;;3.26;48.21;99187.54;1780619;80;20779;-86
2022/03/25 04:46:26;;;;;;;;;;;;;;;3.26;48.29;99189.69;1780701;80;25990;-86
2022/03/25 04:48:52;;;;;;;;;;;;;;;3.24;48.37;99190.16;1777622;80;24486;-86
2022/03/25 04:51:18;;;;;;;;;;;;;;;3.28;48.46;99185.73;1766593;80;20303;-85
2022/03/25 04:53:45;;;;;;;;;;;;;;;3.35;48.55;99192.44;1773525;80;24815;-86
2022/03/25 04:56:11;;;;;;;;;;;;;;;3.35;48.62;99193.73;1779062;80;21917;-86
2022/03/25 04:58:37;;;;;;;;;;;;;;;3.33;48.70;99198.94;1783360;80;25928;-85
2022/03/25 05:01:03;;;;;;;;;;;;;;;3.22;48.74;99192.37;1768325;79;24378;-86
2022/03/25 05:03:29;;;;;;;;;;;;;;;3.10;48.78;99190.16;1742729;80;20777;-85
2022/03/25 05:05:55;;;;;;;;;;;;;;;3.02;48.86;99197.26;1778808;80;20241;-85
2022/03/25 05:08:21;;;;;;;;;;;;;;;2.99;48.96;99194.77;1778699;80;20241;-85
2022/03/25 05:10:47;;;;;;;;;;;;;;;3.09;49.09;99194.91;1775399;80;25958;-84
2022/03/25 05:13:12;;;;;;;;;;;;;;;3.17;49.19;99198.13;1749479;80;20428;-85
2022/03/25 05:15:39;;;;;;;;;;;;;;;3.28;49.32;99205.98;1762940;81;20485;-85
2022/03/25 05:18:05;;;;;;;;;;;;;;;3.35;49.43;99205.38;1760658;81;20193;-85
2022/03/25 05:20:31;;;;;;;;;;;;;;;3.40;49.48;99204.80;1763658;81;22061;-85
2022/03/25 05:22:57;;;;;;;;;;;;;;;3.49;49.59;99205.00;1762825;81;20957;-85
2022/03/25 05:25:24;;;;;;;;;;;;;;;3.50;49.68;99211.40;1765836;81;20918;-85
2022/03/25 05:27:51;;;;;;;;;;;;;;;3.54;49.75;99206.55;1764483;81;20238;-84
2022/03/25 05:30:21;;;;;;;;;;;;;;;3.65;49.84;99212.71;1763136;81;24880;-85
2022/03/25 05:32:47;;;;;;;;;;;;;;;3.65;49.94;99221.33;1766003;81;22036;-85
2022/03/25 05:35:14;;;;;;;;;;;;;;;3.74;50.02;99223.63;1763119;81;20930;-85
2022/03/25 05:37:51;;;;;;;;;;;;;;;3.92;50.15;99225.27;1761919;81;24420;-85
2022/03/25 05:40:21;;;;;;;;;;;;;;;4.05;50.25;99227.42;1761236;81;20234;-85
2022/03/25 05:42:49;;;;;;;;;;;;;;;4.15;50.35;99233.16;1757773;81;24720;-85
2022/03/25 05:45:19;;;;;;;;;;;;;;;4.28;50.44;99234.48;1765723;81;21933;-85
2022/03/25 05:47:45;;;;;;;;;;;;;;;4.42;50.55;99237.47;1698117;84;26056;-85
2022/03/25 05:50:11;;;;;;;;;;;;;;;4.50;50.64;99239.37;1700199;84;24471;-87
2022/03/25 05:52:38;;;;;;;;;;;;;;;4.59;50.72;99240.36;1718860;83;20160;-86
2022/03/25 05:55:04;;;;;;;;;;;;;;;4.72;50.82;99238.67;1698535;84;24840;-85
2022/03/25 05:57:31;;;;;;;;;;;;;;;4.85;50.90;99238.67;1696171;84;22043;-85
2022/03/25 05:59:58;;;;;;;;;;;;;;;4.90;50.94;99244.54;1702119;84;25979;-86
2022/03/25 06:02:27;;;;;;;;;;;;;;;5.00;51.00;99239.44;1692537;83;24704;-85
2022/03/25 06:04:55;;;;;;;;;;;;;;;4.98;50.99;99243.37;1693421;84;20250;-85
2022/03/25 06:07:22;;;;;;;;;;;;;;;4.94;50.97;99243.08;1720190;83;25586;-85
2022/03/25 06:09:48;;;;;;;;;;;;;;;4.86;50.95;99248.11;1698654;84;21988;-85
2022/03/25 06:12:15;;;;;;;;;;;;;;;4.79;50.98;99241.02;1697965;83;26674;-85
2022/03/25 06:14:42;;;;;;;;;;;;;;;4.70;50.98;99247.78;1719204;82;24431;-85
2022/03/25 06:17:08;;;;;;;;;;;;;;;4.68;51.02;99251.34;1718881;82;20326;-85
2022/03/25 06:19:35;;;;;;;;;;;;;;;4.69;51.10;99248.67;1697402;82;20269;-85
2022/03/25 06:22:01;;;;;;;;;;;;;;;4.72;51.16;99249.04;1738662;81;22072;-85
2022/03/25 06:24:29;;;;;;;;;;;;;;;4.72;51.22;99246.44;1743629;81;25955;-87
2022/03/25 06:26:58;;;;;;;;;;;;;;;4.75;51.30;99247.63;1743273;81;24398;-85
2022/03/25 06:29:24;;;;;;;;;;;;;;;4.80;51.41;99248.35;1737263;81;20218;-85
2022/03/25 06:31:51;;;;;;;;;;;;;;;4.89;51.54;99249.33;1719495;82;24715;-85
2022/03/25 06:34:20;;;;;;;;;;;;;;;4.96;51.65;99254.23;1706665;83;22067;-85
2022/03/25 06:36:45;;;;;;;;;;;;;;;5.07;51.80;99255.64;1708257;83;25922;-86
2022/03/25 06:39:11;;;;;;;;;;;;;;;5.23;51.94;99265.44;1711737;83;20854;-86
2022/03/25 06:41:37;;;;;;;;;;;;;;;5.34;52.05;99262.02;1715887;83;20494;-85
2022/03/25 06:44:03;;;;;;;;;;;;;;;5.43;52.14;99262.97;1709248;83;25612;-85
2022/03/25 06:46:29;;;;;;;;;;;;;;;5.54;52.25;99258.69;1710516;83;22081;-85
2022/03/25 06:48:55;;;;;;;;;;;;;;;5.66;52.33;99258.70;1713187;81;20968;-86
2022/03/25 06:51:21;;;;;;;;;;;;;;;5.74;52.41;99267.03;1712231;82;24532;-85
2022/03/25 06:53:47;;;;;;;;;;;;;;;5.79;52.47;99267.70;1717174;83;20278;-85
2022/03/25 06:56:13;;;;;;;;;;;;;;;5.87;52.53;99274.36;1711461;83;20924;-85
2022/03/25 06:58:40;;;;;;;;;;;;;;;5.96;52.62;99272.30;1722069;83;22708;-85
2022/03/25 07:01:06;;;;;;;;;;;;;;;6.04;52.71;99272.42;1708494;83;26119;-85
2022/03/25 07:03:32;;;;;;;;;;;;;;;6.12;52.78;99276.86;1718267;82;24482;-86
2022/03/25 07:06:00;;;;;;;;;;;;;;;6.19;52.80;99270.53;1712119;81;20211;-86
2022/03/25 07:08:29;;;;;;;;;;;;;;;6.25;52.85;99274.20;1704615;83;24580;-85
2022/03/25 07:10:56;;;;;;;;;;;;;;;6.33;52.89;99279.08;1718513;82;22036;-85
2022/03/25 07:13:23;;;;;;;;;;;;;;;6.43;52.92;99279.59;1712994;82;25988;-86
2022/03/25 07:15:49;;;;;;;;;;;;;;;6.52;52.94;99277.45;1784823;79;24468;-86
2022/03/25 07:18:16;;;;;;;;;;;;;;;6.61;52.93;99278.38;1773534;79;20311;-86
2022/03/25 07:20:42;;;;;;;;;;;;;;;6.75;52.99;99273.94;1773665;79;24753;-86
2022/03/25 07:23:08;;;;;;;;;;;;;;;6.84;53.04;99273.55;1775645;79;20747;-85
2022/03/25 07:25:34;;;;;;;;;;;;;;;7.00;53.08;99281.10;1779239;79;20954;-86
2022/03/25 07:28:00;;;;;;;;;;;;;;;7.15;53.17;99280.91;1781837;79;20239;-85
2022/03/25 07:30:27;;;;;;;;;;;;;;;7.27;53.25;99284.30;1764018;79;20258;-85
2022/03/25 07:32:53;;;;;;;;;;;;;;;7.40;53.29;99292.43;1769599;79;24798;-85
2022/03/25 07:35:19;;;;;;;;;;;;;;;7.48;53.30;99293.78;1772663;79;22018;-86
2022/03/25 07:37:46;;;;;;;;;;;;;;;7.64;53.34;99295.73;1783196;79;21031;-85
2022/03/25 07:40:13;;;;;;;;;;;;;;;7.72;53.32;99290.56;1776304;79;24502;-85
2022/03/25 07:42:40;;;;;;;;;;;;;;;7.74;53.22;99294.41;1771872;79;20247;-86
2022/03/25 07:45:08;;;;;;;;;;;;;;;7.81;53.13;99296.66;1771721;79;25622;-85
2022/03/25 07:47:36;;;;;;;;;;;;;;;7.86;53.03;99298.59;1722103;82;21960;-85
2022/03/25 07:50:02;;;;;;;;;;;;;;;7.93;52.94;99295.26;1715230;82;26701;-85
2022/03/25 07:52:28;;;;;;;;;;;;;;;8.01;52.87;99299.68;1721267;82;20928;-85
2022/03/25 07:54:54;;;;;;;;;;;;;;;8.09;52.79;99300.62;1729004;82;20848;-85
2022/03/25 07:57:21;;;;;;;;;;;;;;;8.08;52.63;99299.77;1725361;82;20283;-85
2022/03/25 07:59:47;;;;;;;;;;;;;;;8.09;52.53;99304.07;1717228;82;22082;-84
2022/03/25 08:02:13;;;;;;;;;;;;;;;8.15;52.43;99305.55;1691461;83;26040;-84
2022/03/25 08:04:39;;;;;;;;;;;;;;;8.21;52.34;99302.20;1728311;82;20297;-85
2022/03/25 08:07:05;;;;;;;;;;;;;;;8.23;52.26;99304.30;1741424;81;20257;-86
2022/03/25 08:09:31;;;;;;;;;;;;;;;8.28;52.16;99303.62;1745138;81;20266;-86
2022/03/25 08:11:59;;;;;;;;;;;;;;;8.44;52.16;99307.69;1745455;81;22041;-86
2022/03/25 08:14:25;;;;;;;;;;;;;;;8.54;52.13;99309.39;1736131;81;26796;-86
2022/03/25 08:16:51;;;;;;;;;;;;;;;8.60;52.07;99307.80;1733527;81;20939;-86
2022/03/25 08:19:17;;;;;;;;;;;;;;;8.70;52.03;99313.81;1724073;81;20232;-85
2022/03/25 08:21:45;;;;;;;;;;;;;;;8.78;51.98;99309.54;1744300;81;24802;-85
2022/03/25 08:29:40;;;;;;;;;;;;;;;8.90;51.82;99314.14;1741057;82;24426;-85
2022/03/25 08:32:06;;;;;;;;;;;;;;;8.98;51.79;99318.99;1713586;83;20562;-85
2022/03/25 08:34:32;;;;;;;;;;;;;;;9.06;51.75;99312.45;1744122;82;25593;-86
2022/03/25 08:36:58;;;;;;;;;;;;;;;9.15;51.73;99313.78;1742175;82;20853;-85
2022/03/25 08:39:24;;;;;;;;;;;;;;;9.15;51.63;99315.94;1741463;80;21032;-85
2022/03/25 08:41:50;;;;;;;;;;;;;;;9.23;51.63;99306.39;1706733;83;24393;-86
2022/03/25 08:44:21;;;;;;;;;;;;;;;9.32;51.61;99312.48;1738868;81;20541;-86
2022/03/25 08:46:44;;;;;;;;;;;;;;;9.43;51.59;99308.86;1741270;81;25643;-86
2022/03/25 08:49:11;;;;;;;;;;;;;;;9.58;51.59;99307.22;1706263;83;22084;-86
2022/03/25 08:51:37;;;;;;;;;;;;;;;9.69;51.51;99305.35;1740247;81;25912;-86
2022/03/25 08:54:03;;;;;;;;;;;;;;;9.72;51.45;99306.02;1742188;81;20273;-84
2022/03/25 08:56:30;;;;;;;;;;;;;;;9.78;51.35;99300.48;1737385;81;20526;-85
2022/03/25 08:58:58;;;;;;;;;;;;;;;9.90;51.32;99298.98;1732882;81;24813;-84
2022/03/25 09:01:24;;;;;;;;;;;;;;;9.98;51.24;99302.05;1731765;82;21815;-85
2022/03/25 09:03:50;;;;;;;;;;;;;;;10.07;51.14;99293.24;1704322;83;26084;-85
2022/03/25 09:06:17;;;;;;;;;;;;;;;10.17;51.10;99298.84;1724944;82;24420;-85
2022/03/25 09:08:43;;;;;;;;;;;;;;;10.28;51.03;99296.48;1722460;82;20215;-85
2022/03/25 09:11:12;;;;;;;;;;;;;;;10.35;50.99;99299.16;1725528;82;24766;-85
2022/03/25 09:13:40;;;;;;;;;;;;;;;10.44;50.87;99293.87;1701531;83;22017;-86
2022/03/25 09:16:07;;;;;;;;;;;;;;;10.49;50.68;99299.69;1695770;84;26018;-85
2022/03/25 09:18:33;;;;;;;;;;;;;;;10.51;50.46;99296.99;1693929;83;24556;-85
2022/03/25 09:20:59;;;;;;;;;;;;;;;10.55;50.20;99293.27;1681086;83;20209;-85
2022/03/25 09:23:25;;;;;;;;;;;;;;;10.60;49.95;99297.31;1669923;83;20265;-85
2022/03/25 09:25:51;;;;;;;;;;;;;;;10.67;49.76;99293.43;1699875;83;20823;-86
2022/03/25 09:28:17;;;;;;;;;;;;;;;10.71;49.60;99298.02;1699294;83;25984;-85
2022/03/25 09:30:45;;;;;;;;;;;;;;;10.69;49.34;99285.50;1677800;83;20443;-86
2022/03/25 09:33:11;;;;;;;;;;;;;;;10.70;49.14;99283.23;1697310;83;20252;-86
2022/03/25 09:35:38;;;;;;;;;;;;;;;10.75;49.00;99285.97;1695930;83;24782;-85
2022/03/25 09:38:04;;;;;;;;;;;;;;;10.82;48.86;99291.24;1686710;84;22027;-85
2022/03/25 09:40:30;;;;;;;;;;;;;;;10.91;48.75;99284.63;1669969;83;25971;-85
2022/03/25 09:42:57;;;;;;;;;;;;;;;11.02;48.64;99286.16;1744039;82;20942;-86
2022/03/25 09:45:24;;;;;;;;;;;;;;;11.12;48.52;99287.34;1747443;82;20424;-85
2022/03/25 09:47:50;;;;;;;;;;;;;;;11.25;48.46;99284.81;1747544;80;24831;-85
2022/03/25 09:50:21;;;;;;;;;;;;;;;11.33;48.29;99289.16;1747029;81;22141;-85
2022/03/25 09:52:47;;;;;;;;;;;;;;;11.33;47.92;99292.63;1746195;82;26100;-86
2022/03/25 09:55:13;;;;;;;;;;;;;;;11.25;47.50;99289.59;1752964;81;24739;-85
2022/03/25 09:57:40;;;;;;;;;;;;;;;11.21;47.13;99287.25;1736533;81;20178;-86
2022/03/25 10:00:08;;;;;;;;;;;;;;;11.22;46.94;99282.39;1747113;82;24978;-85
2022/03/25 10:02:34;;;;;;;;;;;;;;;11.29;46.87;99288.97;1747509;82;22157;-86
2022/03/25 10:05:00;;;;;;;;;;;;;;;11.39;46.74;99287.48;1747211;82;21053;-86
2022/03/25 10:07:27;;;;;;;;;;;;;;;11.53;46.71;99285.33;1746946;81;20280;-85
2022/03/25 10:10:10;;;;;;;;;;;;;;;11.63;46.69;99278.13;1746961;82;20186;-85
2022/03/25 10:12:38;;;;;;;;;;;;;;;11.70;46.58;99277.30;1760644;80;24742;-86
2022/03/25 10:15:18;;;;;;;;;;;;;;;11.79;46.48;99276.75;1773721;80;22112;-85
2022/03/25 10:17:46;;;;;;;;;;;;;;;11.86;46.33;99282.47;1706089;83;26799;-86
2022/03/25 10:20:12;;;;;;;;;;;;;;;11.85;46.01;99278.16;1727484;82;24426;-86
2022/03/25 10:22:38;;;;;;;;;;;;;;;11.85;45.85;99281.62;1731136;82;20252;-85
2022/03/25 10:25:09;;;;;;;;;;;;;;;11.87;45.63;99275.83;1728736;82;20897;-85
2022/03/25 10:27:34;;;;;;;;;;;;;;;11.88;45.40;99276.67;1730673;82;21963;-85
2022/03/25 10:30:01;;;;;;;;;;;;;;;11.89;45.20;99278.38;1731590;82;26642;-85
2022/03/25 10:32:27;;;;;;;;;;;;;;;11.97;45.16;99283.97;1726677;82;24436;-84
2022/03/25 10:35:01;;;;;;;;;;;;;;;12.04;45.12;99273.01;1722696;82;20152;-85
2022/03/25 10:37:28;;;;;;;;;;;;;;;12.14;45.09;99276.73;1730957;82;24808;-86
2022/03/25 10:39:54;;;;;;;;;;;;;;;12.24;45.01;99276.15;1713191;82;22061;-85
2022/03/25 10:42:20;;;;;;;;;;;;;;;12.22;44.83;99272.80;1732103;82;20981;-85
2022/03/25 10:44:46;;;;;;;;;;;;;;;12.33;44.79;99274.28;1727233;82;24459;-85
2022/03/25 10:47:17;;;;;;;;;;;;;;;12.37;44.69;99268.73;1727263;82;20625;-86
2022/03/25 10:49:47;;;;;;;;;;;;;;;12.47;44.63;99265.03;1727480;82;24853;-86
2022/03/25 10:52:21;;;;;;;;;;;;;;;12.49;44.50;99267.11;1726161;82;22059;-86
2022/03/25 10:54:50;;;;;;;;;;;;;;;12.54;44.41;99266.34;1726537;82;25380;-86
2022/03/25 10:57:17;;;;;;;;;;;;;;;12.60;44.35;99263.28;1727732;82;24543;-84
2022/03/25 10:59:46;;;;;;;;;;;;;;;12.67;44.27;99265.05;1727251;81;20208;-86
2022/03/25 11:02:12;;;;;;;;;;;;;;;12.72;44.21;99257.23;1726191;82;25763;-85
2022/03/25 11:04:43;;;;;;;;;;;;;;;12.86;44.23;99255.88;1724784;82;22202;-86
2022/03/25 11:07:10;;;;;;;;;;;;;;;13.03;44.33;99259.17;1725875;81;26020;-85
2022/03/25 11:09:36;;;;;;;;;;;;;;;13.08;44.20;99256.61;1722535;82;24381;-86
2022/03/25 11:12:01;;;;;;;;;;;;;;;13.13;44.08;99257.64;1730895;82;20192;-85
2022/03/25 11:14:28;;;;;;;;;;;;;;;13.18;44.00;99258.17;1731433;82;20235;-86
2022/03/25 11:16:55;;;;;;;;;;;;;;;13.12;43.77;99255.95;1731354;83;22654;-86
2022/03/25 11:19:22;;;;;;;;;;;;;;;13.15;43.75;99253.95;1730373;82;25977;-86
2022/03/25 11:21:48;;;;;;;;;;;;;;;13.23;43.71;99249.50;1730800;82;24386;-85
2022/03/25 11:24:19;;;;;;;;;;;;;;;13.28;43.60;99246.09;1729858;83;20549;-86
2022/03/25 11:26:47;;;;;;;;;;;;;;;13.25;43.48;99251.57;1730837;82;24913;-85
2022/03/25 11:29:14;;;;;;;;;;;;;;;13.28;43.41;99248.72;1731598;82;21981;-85
2022/03/25 11:31:58;;;;;;;;;;;;;;;13.37;43.36;99244.14;1731243;83;26033;-86
2022/03/25 11:34:26;;;;;;;;;;;;;;;13.48;43.33;99241.62;1731839;82;24649;-86
2022/03/25 11:37:10;;;;;;;;;;;;;;;13.47;43.12;99246.53;1733411;81;20307;-86
2022/03/25 11:39:36;;;;;;;;;;;;;;;13.38;42.95;99237.94;1731338;83;24765;-86
2022/03/25 11:42:03;;;;;;;;;;;;;;;13.37;42.88;99235.78;1732054;82;20818;-86
2022/03/25 11:44:29;;;;;;;;;;;;;;;13.46;42.89;99230.85;1731994;83;26662;-86
2022/03/25 11:47:00;;;;;;;;;;;;;;;13.53;42.87;99234.25;1731618;83;20255;-86
2022/03/25 11:49:27;;;;;;;;;;;;;;;13.54;42.72;99231.99;1731865;83;20156;-86
2022/03/25 11:51:54;;;;;;;;;;;;;;;13.45;42.54;99232.64;1731487;81;24762;-86
2022/03/25 11:54:40;;;;;;;;;;;;;;;13.49;42.52;99227.53;1731461;82;21926;-86
2022/03/25 11:57:08;;;;;;;;;;;;;;;13.50;42.43;99230.53;1731942;81;26237;-85
2022/03/25 11:59:51;;;;;;;;;;;;;;;13.45;42.30;99217.33;1727237;81;24408;-85
2022/03/25 12:02:29;;;;;;;;;;;;;;;13.52;42.36;99220.76;1731059;82;20225;-85
2022/03/25 12:04:56;;;;;;;;;;;;;;;13.67;42.38;99213.11;1730863;82;24686;-85
2022/03/25 12:07:22;;;;;;;;;;;;;;;13.75;42.31;99212.55;1731525;83;22039;-86
2022/03/25 12:09:48;;;;;;;;;;;;;;;13.81;42.32;99205.08;1731095;81;20998;-85
2022/03/25 12:12:14;;;;;;;;;;;;;;;13.85;42.15;99205.72;1731563;83;24474;-86
2022/03/25 12:14:59;;;;;;;;;;;;;;;13.80;42.02;99202.07;1718254;82;20515;-86
2022/03/25 12:17:26;;;;;;;;;;;;;;;13.89;42.05;99197.97;1705405;83;25524;-86
2022/03/25 12:19:55;;;;;;;;;;;;;;;13.98;42.05;99196.45;1744103;80;22675;-85
2022/03/25 12:22:23;;;;;;;;;;;;;;;14.05;42.04;99197.70;1759549;81;25966;-86
2022/03/25 12:24:57;;;;;;;;;;;;;;;14.14;42.00;99185.19;1676974;84;24457;-85
2022/03/25 12:27:24;;;;;;;;;;;;;;;14.23;42.02;99192.44;1705758;82;20288;-86
2022/03/25 12:29:51;;;;;;;;;;;;;;;14.27;41.92;99185.99;1715375;83;24720;-85
2022/03/25 12:32:19;;;;;;;;;;;;;;;14.20;41.75;99182.95;1686251;83;22016;-86
2022/03/25 12:35:02;;;;;;;;;;;;;;;14.14;41.51;99178.14;1698247;84;25981;-86
2022/03/25 12:37:30;;;;;;;;;;;;;;;14.12;41.46;99176.58;1700235;83;24676;-86
2022/03/25 12:39:58;;;;;;;;;;;;;;;14.17;41.43;99173.14;1695865;84;20224;-85
2022/03/25 12:42:25;;;;;;;;;;;;;;;14.24;41.45;99167.77;1718870;82;24770;-86
2022/03/25 12:44:54;;;;;;;;;;;;;;;14.29;41.38;99165.67;1718350;82;22068;-86
2022/03/25 12:47:30;;;;;;;;;;;;;;;14.27;41.18;99166.72;1709714;83;25971;-86
2022/03/25 12:49:58;;;;;;;;;;;;;;;14.24;41.10;99164.66;1697601;83;24021;-85
2022/03/25 12:52:26;;;;;;;;;;;;;;;14.21;40.93;99165.38;1695547;84;20334;-86
2022/03/25 12:54:53;;;;;;;;;;;;;;;14.17;40.84;99160.82;1693631;84;24954;-86
2022/03/25 12:57:33;;;;;;;;;;;;;;;14.20;40.83;99155.31;1693042;84;22052;-86